createdAt,value
2019-03-28T00:01:47.359Z,8.40
2019-03-28T00:04:13.419Z,8.40
2019-03-28T00:06:39.539Z,8.40
2019-03-28T00:09:07.850Z,8.40
2019-03-28T00:11:34.422Z,8.40
2019-03-28T00:14:00.620Z,8.40
2019-03-28T00:16:26.771Z,8.40
2019-03-28T00:18:53.221Z,8.40
2019-03-28T00:23:47.777Z,8.30
2019-03-28T00:26:13.960Z,8.30
2019-03-28T00:28:40.053Z,8.10
2019-03-28T00:31:06.196Z,8.30
2019-03-28T00:33:32.248Z,8.20
2019-03-28T00:35:58.784Z,8.20
2019-03-28T00:38:25.203Z,8.20
2019-03-28T00:40:51.356Z,8.10
2019-03-28T00:43:17.445Z,8.10
2019-03-28T00:45:44.657Z,8.10
2019-03-28T00:48:10.876Z,8.10
2019-03-28T00:50:36.968Z,8.10
2019-03-28T00:53:03.246Z,8.20
2019-03-28T00:55:29.387Z,8.10
2019-03-28T00:57:55.484Z,8.10
2019-03-28T01:00:21.975Z,8.10
2019-03-28T01:02:48.157Z,8.40
2019-03-28T01:05:14.515Z,8.10
2019-03-28T01:12:33.692Z,8.20
2019-03-28T01:14:59.843Z,8.20
2019-03-28T01:19:52.500Z,8.10
2019-03-28T01:22:18.764Z,8.10
2019-03-28T01:27:11.386Z,8.10
2019-03-28T01:29:37.576Z,8.00
2019-03-28T01:39:22.932Z,8.00
2019-03-28T01:44:15.543Z,8.00
2019-03-28T01:46:41.612Z,8.10
2019-03-28T01:49:07.700Z,8.10
2019-03-28T01:54:00.349Z,8.00
2019-03-28T01:56:26.541Z,8.00
2019-03-28T01:58:52.708Z,8.10
2019-03-28T02:01:18.787Z,8.00
2019-03-28T02:03:44.843Z,8.10
2019-03-28T02:06:10.947Z,8.10
2019-03-28T02:08:37.042Z,8.10
2019-03-28T02:11:03.188Z,8.10
2019-03-28T02:13:29.326Z,8.10
2019-03-28T02:15:55.562Z,8.20
2019-03-28T02:18:21.656Z,8.20
2019-03-28T02:20:48.244Z,8.10
2019-03-28T02:23:14.378Z,8.10
2019-03-28T02:25:40.489Z,8.10
2019-03-28T02:28:06.696Z,8.10
2019-03-28T02:30:33.279Z,8.10
2019-03-28T02:32:59.993Z,8.00
2019-03-28T02:37:52.847Z,8.10
2019-03-28T02:42:45.363Z,8.10
2019-03-28T02:52:31.465Z,8.00
2019-03-28T02:54:58.036Z,8.00
2019-03-28T02:57:39.642Z,7.90
2019-03-28T02:59:52.371Z,8.00
2019-03-28T03:02:18.616Z,7.90
2019-03-28T03:04:44.725Z,7.90
2019-03-28T03:07:10.884Z,7.90
2019-03-28T03:09:37.074Z,8.00
2019-03-28T03:12:03.363Z,8.00
2019-03-28T03:14:29.563Z,8.00
2019-03-28T03:16:55.727Z,8.00
2019-03-28T03:21:48.250Z,8.00
2019-03-28T03:24:14.492Z,8.00
2019-03-28T03:26:40.603Z,8.00
2019-03-28T03:29:06.737Z,8.00
2019-03-28T03:31:32.896Z,8.00
2019-03-28T03:33:59.061Z,8.00
2019-03-28T03:36:25.216Z,8.10
2019-03-28T03:38:51.293Z,8.10
2019-03-28T03:43:43.980Z,8.10
2019-03-28T03:46:10.064Z,8.10
2019-03-28T03:48:36.240Z,8.10
2019-03-28T03:51:02.279Z,8.10
2019-03-28T03:53:28.363Z,8.00
2019-03-28T03:55:54.618Z,8.00
2019-03-28T04:00:47.198Z,8.00
2019-03-28T04:03:13.259Z,8.00
2019-03-28T04:05:39.338Z,8.10
2019-03-28T04:08:05.530Z,8.10
2019-03-28T04:10:31.729Z,8.10
2019-03-28T04:12:57.931Z,8.10
2019-03-28T04:15:24.077Z,8.10
2019-03-28T04:17:50.338Z,8.10
2019-03-28T04:20:16.508Z,8.10
2019-03-28T04:22:42.709Z,8.00
2019-03-28T04:25:08.882Z,8.00
2019-03-28T04:27:35.048Z,8.00
2019-03-28T04:30:01.133Z,8.00
2019-03-28T04:32:27.329Z,8.10
2019-03-28T04:34:53.476Z,8.10
2019-03-28T04:37:19.579Z,8.10
2019-03-28T04:39:45.735Z,8.20
2019-03-28T04:42:11.783Z,8.20
2019-03-28T04:44:37.888Z,8.10
2019-03-28T04:47:03.964Z,8.20
2019-03-28T04:49:30.045Z,8.10
2019-03-28T04:51:56.228Z,8.10
2019-03-28T04:54:22.316Z,8.10
2019-03-28T04:56:48.387Z,8.10
2019-03-28T04:59:15.364Z,8.10
2019-03-28T05:04:08.104Z,8.10
2019-03-28T05:09:04.247Z,8.10
2019-03-28T05:16:23.549Z,8.20
2019-03-28T05:21:16.168Z,8.20
2019-03-28T05:23:42.283Z,8.20
2019-03-28T05:28:35.045Z,8.20
2019-03-28T05:31:01.487Z,8.20
2019-03-28T05:40:47.129Z,8.40
2019-03-28T05:45:39.935Z,8.40
2019-03-28T05:50:32.656Z,8.40
2019-03-28T05:52:58.748Z,8.40
2019-03-28T05:55:24.921Z,8.40
2019-03-28T05:57:51.087Z,8.30
2019-03-28T06:00:17.170Z,8.30
2019-03-28T06:02:43.380Z,8.40
2019-03-28T06:05:09.548Z,8.40
2019-03-28T06:07:36.337Z,8.40
2019-03-28T06:10:05.880Z,8.40
2019-03-28T06:12:31.923Z,8.40
2019-03-28T06:14:57.983Z,8.40
2019-03-28T06:17:24.106Z,8.30
2019-03-28T06:19:50.247Z,8.40
2019-03-28T06:22:16.851Z,8.40
2019-03-28T06:24:42.946Z,8.50
2019-03-28T06:29:35.673Z,8.60
2019-03-28T06:32:02.457Z,8.70
2019-03-28T06:36:55.247Z,8.80
2019-03-28T06:39:21.361Z,8.80
2019-03-28T06:44:14.966Z,8.90
2019-03-28T06:49:07.635Z,8.90
2019-03-28T06:51:33.831Z,8.80
2019-03-28T06:56:26.588Z,8.80
2019-03-28T07:01:19.324Z,8.80
2019-03-28T07:03:47.389Z,8.80
2019-03-28T07:06:19.718Z,8.80
2019-03-28T07:08:45.763Z,8.80
2019-03-28T07:13:41.656Z,9.00
2019-03-28T07:16:07.865Z,9.10
2019-03-28T07:18:34.361Z,9.20
2019-03-28T07:21:00.552Z,9.30
2019-03-28T07:23:26.657Z,9.40
2019-03-28T07:25:52.865Z,9.50
2019-03-28T07:28:19.041Z,9.60
2019-03-28T07:33:12.212Z,9.70
2019-03-28T07:35:38.369Z,9.80
2019-03-28T07:40:33.493Z,9.70
2019-03-28T07:42:59.284Z,9.70
2019-03-28T07:45:26.344Z,9.70
2019-03-28T07:47:52.492Z,9.60
2019-03-28T07:50:18.603Z,9.60
2019-03-28T07:52:52.562Z,9.70
2019-03-28T07:55:20.280Z,9.60
2019-03-28T08:00:13.431Z,9.60
2019-03-28T08:02:39.545Z,9.60
2019-03-28T08:05:08.588Z,9.50
2019-03-28T08:07:44.342Z,9.60
2019-03-28T08:10:05.019Z,9.60
2019-03-28T08:12:31.113Z,9.80
2019-03-28T08:14:57.267Z,9.70
2019-03-28T08:17:23.415Z,9.80
2019-03-28T08:19:49.460Z,9.80
2019-03-28T08:22:15.553Z,9.90
2019-03-28T08:24:41.688Z,10.00
2019-03-28T08:27:07.740Z,10.00
2019-03-28T08:29:33.842Z,10.00
2019-03-28T08:32:00.528Z,10.10
2019-03-28T08:34:27.012Z,10.20
2019-03-28T08:36:53.234Z,10.10
2019-03-28T08:39:19.886Z,10.30
2019-03-28T08:41:48.580Z,10.30
2019-03-28T08:44:13.999Z,10.40
2019-03-28T08:46:40.102Z,10.40
2019-03-28T08:49:06.300Z,10.50
2019-03-28T08:51:32.460Z,10.50
2019-03-28T08:53:58.544Z,10.50
2019-03-28T08:56:24.598Z,10.50
2019-03-28T08:58:50.684Z,10.60
2019-03-28T09:01:17.046Z,10.70
2019-03-28T09:03:43.212Z,10.80
2019-03-28T09:06:09.297Z,11.00
2019-03-28T09:08:35.523Z,11.20
2019-03-28T09:11:01.725Z,11.50
2019-03-28T09:13:27.815Z,11.80
2019-03-28T09:15:53.966Z,11.90
2019-03-28T09:18:20.036Z,12.10
2019-03-28T09:20:46.092Z,12.20
2019-03-28T09:23:12.177Z,12.20
2019-03-28T09:25:38.414Z,12.30
2019-03-28T09:28:04.465Z,12.30
2019-03-28T09:30:48.026Z,12.40
2019-03-28T09:33:07.578Z,12.50
2019-03-28T09:35:34.168Z,12.60
2019-03-28T09:38:00.349Z,12.70
2019-03-28T09:40:26.504Z,12.80
2019-03-28T09:42:52.616Z,13.00
2019-03-28T09:45:18.704Z,13.20
2019-03-28T09:47:44.872Z,13.50
2019-03-28T09:50:10.960Z,13.60
2019-03-28T09:52:37.104Z,13.80
2019-03-28T09:55:04.601Z,13.90
2019-03-28T09:57:30.708Z,13.90
2019-03-28T09:59:56.969Z,13.60
2019-03-28T10:02:23.099Z,14.10
2019-03-28T10:04:49.181Z,13.50
2019-03-28T10:07:15.262Z,13.60
2019-03-28T10:09:41.921Z,13.00
2019-03-28T10:12:08.152Z,13.70
2019-03-28T10:14:34.237Z,12.70
2019-03-28T10:17:01.386Z,12.90
2019-03-28T10:19:27.663Z,12.90
2019-03-28T10:21:53.752Z,13.00
2019-03-28T10:24:19.908Z,12.50
2019-03-28T10:26:45.967Z,12.70
2019-03-28T10:29:12.519Z,13.20
2019-03-28T10:31:38.592Z,13.30
2019-03-28T10:34:04.680Z,13.30
2019-03-28T10:36:30.747Z,13.50
2019-03-28T10:38:56.807Z,13.70
2019-03-28T10:41:25.737Z,14.00
2019-03-28T10:43:50.885Z,13.70
2019-03-28T10:46:17.108Z,14.00
2019-03-28T10:48:43.255Z,14.00
2019-03-28T10:51:09.408Z,14.10
2019-03-28T10:53:35.599Z,14.40
2019-03-28T10:56:01.805Z,14.20
2019-03-28T10:58:27.922Z,14.20
2019-03-28T11:00:54.854Z,14.60
2019-03-28T11:03:21.619Z,14.70
2019-03-28T11:05:47.762Z,15.00
2019-03-28T11:08:13.885Z,15.30
2019-03-28T11:10:40.089Z,15.60
2019-03-28T11:13:09.369Z,15.90
2019-03-28T11:15:34.188Z,15.90
2019-03-28T11:18:00.256Z,15.60
2019-03-28T11:20:26.328Z,15.50
2019-03-28T11:22:52.414Z,15.20
2019-03-28T11:25:18.573Z,14.80
2019-03-28T11:27:44.728Z,14.30
2019-03-28T11:30:11.183Z,14.20
2019-03-28T11:32:37.304Z,14.10
2019-03-28T11:35:06.687Z,14.10
2019-03-28T11:37:33.804Z,14.20
2019-03-28T11:39:59.889Z,14.20
2019-03-28T11:42:26.053Z,14.10
2019-03-28T11:44:52.352Z,14.00
2019-03-28T11:49:46.785Z,13.80
2019-03-28T11:54:39.529Z,13.30
2019-03-28T11:57:05.719Z,13.20
2019-03-28T11:59:31.848Z,13.00
2019-03-28T12:02:02.110Z,12.90
2019-03-28T12:04:25.907Z,12.80
2019-03-28T12:06:52.053Z,12.70
2019-03-28T12:09:18.119Z,12.70
2019-03-28T12:11:44.216Z,12.60
2019-03-28T12:16:36.801Z,12.40
2019-03-28T12:19:03.016Z,12.30
2019-03-28T12:21:29.192Z,12.20
2019-03-28T12:23:55.384Z,12.00
2019-03-28T12:26:21.608Z,12.00
2019-03-28T12:28:47.785Z,12.00
2019-03-28T12:31:13.876Z,12.00
2019-03-28T12:38:33.140Z,12.50
2019-03-28T12:40:59.242Z,12.50
2019-03-28T12:43:25.400Z,12.40
2019-03-28T12:45:51.456Z,12.40
2019-03-28T12:48:17.579Z,12.30
2019-03-28T12:50:43.723Z,12.20
2019-03-28T12:53:10.940Z,12.10
2019-03-28T12:55:37.279Z,12.00
2019-03-28T12:58:03.432Z,11.90
2019-03-28T13:00:33.611Z,11.90
2019-03-28T13:02:59.880Z,12.00
2019-03-28T13:05:26.024Z,12.10
2019-03-28T13:07:52.208Z,12.20
2019-03-28T13:12:44.796Z,12.40
2019-03-28T13:15:11.259Z,12.60
2019-03-28T13:17:37.432Z,12.80
2019-03-28T13:20:06.749Z,13.10
2019-03-28T13:22:33.052Z,13.10
2019-03-28T13:24:59.207Z,13.30
2019-03-28T13:27:25.286Z,13.40
2019-03-28T13:29:51.327Z,13.50
2019-03-28T13:32:17.423Z,13.50
2019-03-28T13:37:10.096Z,13.10
2019-03-28T13:39:36.155Z,12.90
2019-03-28T13:49:23.235Z,12.50
2019-03-28T13:51:49.283Z,12.40
2019-03-28T13:54:15.348Z,12.40
2019-03-28T13:56:41.508Z,12.30
2019-03-28T13:59:07.635Z,12.30
2019-03-28T14:01:33.693Z,12.30
2019-03-28T14:03:59.823Z,12.50
2019-03-28T14:06:26.011Z,12.60
2019-03-28T14:08:52.073Z,12.80
2019-03-28T14:11:18.127Z,12.90
2019-03-28T14:13:44.190Z,13.00
2019-03-28T14:16:10.244Z,13.10
2019-03-28T14:21:02.734Z,13.10
2019-03-28T14:23:28.795Z,13.10
2019-03-28T14:28:21.304Z,12.90
2019-03-28T14:30:48.891Z,12.80
2019-03-28T14:40:35.152Z,12.70
2019-03-28T14:43:01.604Z,12.80
2019-03-28T14:55:28.204Z,12.90
2019-03-28T15:00:41.895Z,12.70
2019-03-28T15:10:27.758Z,12.80
2019-03-28T15:12:53.988Z,12.80
2019-03-28T15:15:20.052Z,12.90
2019-03-28T15:17:46.179Z,12.90
2019-03-28T15:22:38.925Z,12.90
2019-03-28T15:25:05.779Z,12.90
2019-03-28T15:32:24.748Z,12.90
2019-03-28T15:34:50.836Z,13.00
2019-03-28T15:39:43.421Z,12.90
2019-03-28T15:42:09.695Z,12.90
2019-03-28T15:44:39.163Z,12.90
2019-03-28T15:47:03.725Z,12.80
2019-03-28T15:49:29.795Z,12.80
2019-03-28T15:54:22.564Z,12.70
2019-03-28T15:56:48.622Z,12.70
2019-03-28T16:01:41.299Z,12.60
2019-03-28T16:04:07.466Z,12.60
2019-03-28T16:13:53.395Z,12.60
2019-03-28T16:16:19.472Z,12.60
2019-03-28T16:21:12.103Z,12.60
2019-03-28T16:26:04.769Z,12.60
2019-03-28T16:28:30.819Z,12.50
2019-03-28T16:33:23.403Z,12.40
2019-03-28T16:38:15.915Z,12.30
2019-03-28T16:40:42.067Z,12.20
2019-03-28T16:52:54.523Z,12.00
2019-03-28T16:55:26.140Z,11.90
2019-03-28T16:57:48.623Z,11.90
2019-03-28T17:00:15.580Z,11.90
2019-03-28T17:02:41.631Z,11.80
2019-03-28T17:05:07.994Z,11.80
2019-03-28T17:10:01.539Z,11.70
2019-03-28T17:24:39.788Z,11.40
2019-03-28T17:27:05.855Z,11.30
2019-03-28T17:31:58.504Z,11.20
2019-03-28T17:36:52.907Z,11.20
2019-03-28T17:49:06.936Z,11.00
2019-03-28T17:56:25.906Z,11.00
2019-03-28T17:58:52.063Z,10.90
2019-03-28T18:01:18.116Z,10.90
2019-03-28T18:11:03.488Z,10.90
2019-03-28T18:13:29.638Z,10.90
2019-03-28T18:15:55.799Z,10.90
2019-03-28T18:18:21.848Z,10.80
2019-03-28T18:23:14.374Z,10.90
2019-03-28T18:25:40.516Z,10.90
2019-03-28T18:28:06.575Z,10.90
2019-03-28T18:30:32.627Z,10.90
2019-03-28T18:32:58.696Z,10.90
2019-03-28T18:37:51.180Z,10.90
2019-03-28T18:42:44.149Z,10.80
2019-03-28T18:45:12.746Z,10.80
2019-03-28T18:50:06.141Z,10.80
2019-03-28T18:52:32.328Z,10.70
2019-03-28T18:54:58.403Z,10.70
2019-03-28T18:57:24.633Z,10.70
2019-03-28T18:59:50.891Z,10.70
2019-03-28T19:02:17.108Z,10.70
2019-03-28T19:07:10.049Z,10.70
2019-03-28T19:12:03.501Z,10.70
2019-03-28T19:14:29.672Z,10.70
2019-03-28T19:21:48.693Z,10.70
2019-03-28T19:26:41.424Z,10.60
2019-03-28T19:38:54.069Z,10.70
2019-03-28T19:43:48.078Z,10.70
2019-03-28T19:46:14.329Z,10.60
2019-03-28T19:48:40.644Z,10.60
2019-03-28T19:53:36.607Z,10.60
2019-03-28T19:58:29.200Z,10.60
2019-03-28T20:00:55.489Z,10.50
2019-03-28T20:03:23.150Z,10.50
2019-03-28T20:05:50.205Z,10.60
2019-03-28T20:13:11.940Z,10.60
2019-03-28T20:15:38.170Z,10.50
2019-03-28T20:18:04.303Z,10.50
2019-03-28T20:30:16.737Z,10.40
2019-03-28T20:32:42.856Z,10.40
2019-03-28T20:35:10.759Z,10.40
2019-03-28T20:42:31.426Z,10.40
2019-03-28T20:47:24.278Z,10.40
2019-03-28T20:49:51.032Z,10.40
2019-03-28T20:52:17.079Z,10.30
2019-03-28T20:54:43.129Z,10.30
2019-03-28T20:57:09.826Z,10.30
2019-03-28T20:59:36.067Z,10.30
2019-03-28T21:02:02.175Z,10.30
2019-03-28T21:11:49.789Z,10.30
2019-03-28T21:14:15.980Z,10.30
2019-03-28T21:16:42.080Z,10.30
2019-03-28T21:21:34.590Z,10.20
2019-03-28T21:24:00.695Z,10.20
2019-03-28T21:26:26.749Z,10.20
2019-03-28T21:28:52.805Z,10.10
2019-03-28T21:31:18.862Z,10.10
2019-03-28T21:33:44.914Z,10.10
2019-03-28T21:36:11.076Z,10.10
2019-03-28T21:38:37.159Z,10.10
2019-03-28T21:43:30.801Z,10.20
2019-03-28T21:48:23.768Z,10.10
2019-03-28T21:50:49.819Z,10.10
2019-03-28T21:55:54.369Z,10.00
2019-03-28T21:58:10.386Z,10.00
2019-03-28T22:00:36.483Z,10.00
2019-03-28T22:03:02.531Z,10.00
2019-03-28T22:12:50.019Z,10.20
2019-03-28T22:15:16.214Z,10.20
2019-03-28T22:17:42.391Z,10.20
2019-03-28T22:20:08.800Z,10.20
2019-03-28T22:25:01.468Z,10.10
2019-03-28T22:29:54.051Z,10.10
2019-03-28T22:39:39.783Z,10.20
2019-03-28T22:47:00.247Z,10.20
2019-03-28T22:49:26.421Z,10.20
2019-03-28T22:51:52.791Z,10.20
2019-03-28T22:54:18.958Z,10.10
2019-03-28T22:59:11.715Z,10.10
2019-03-28T23:13:52.828Z,10.20
2019-03-28T23:18:45.518Z,10.10
2019-03-28T23:21:11.787Z,10.10
2019-03-28T23:28:30.969Z,10.00
2019-03-28T23:30:57.034Z,10.10
2019-03-28T23:33:23.288Z,10.00
2019-03-28T23:35:49.403Z,10.10
2019-03-28T23:40:42.055Z,10.10
2019-03-28T23:50:29.485Z,10.00
2019-03-28T23:52:55.639Z,10.00
2019-03-28T23:55:21.736Z,10.00
2019-03-28T23:57:47.899Z,10.00
